createdAt,value
2019-03-23T00:00:23.738Z,61.20
2019-03-23T00:05:28.522Z,61.20
2019-03-23T00:10:33.243Z,61.10
2019-03-23T00:15:38.059Z,60.83
2019-03-23T00:20:42.808Z,60.61
2019-03-23T00:25:47.435Z,60.36
2019-03-23T00:30:52.130Z,60.36
2019-03-23T00:35:56.717Z,60.43
2019-03-23T00:41:01.471Z,60.92
2019-03-23T00:46:06.191Z,61.01
2019-03-23T00:51:10.766Z,61.39
2019-03-23T00:56:16.590Z,60.49
2019-03-23T01:01:21.507Z,60.49
2019-03-23T01:06:26.218Z,61.01
2019-03-23T01:11:30.880Z,61.45
2019-03-23T01:16:35.811Z,61.33
2019-03-23T01:21:40.468Z,61.02
2019-03-23T01:26:45.104Z,61.02
2019-03-23T01:31:49.651Z,61.06
2019-03-23T01:37:02.515Z,61.86
2019-03-23T01:42:00.563Z,61.86
2019-03-23T01:47:05.230Z,61.41
2019-03-23T01:52:09.840Z,61.48
2019-03-23T01:57:14.497Z,60.62
2019-03-23T02:02:19.075Z,61.48
2019-03-23T02:07:23.683Z,61.93
2019-03-23T02:12:28.265Z,61.37
2019-03-23T02:17:32.871Z,61.76
2019-03-23T02:22:37.451Z,61.75
2019-03-23T02:27:42.115Z,61.48
2019-03-23T02:32:46.830Z,61.56
2019-03-23T02:37:51.448Z,61.28
2019-03-23T02:42:56.067Z,62.05
2019-03-23T02:48:00.632Z,62.05
2019-03-23T02:53:05.254Z,61.62
2019-03-23T03:03:13.126Z,61.91
2019-03-23T03:08:17.745Z,61.90
2019-03-23T03:13:22.432Z,61.82
2019-03-23T03:18:27.003Z,61.56
2019-03-23T03:23:31.614Z,61.93
2019-03-23T03:28:36.453Z,62.30
2019-03-23T03:33:41.110Z,61.75
2019-03-23T03:38:45.694Z,61.73
2019-03-23T03:43:50.249Z,62.79
2019-03-23T03:48:54.891Z,62.07
2019-03-23T03:53:59.641Z,62.09
2019-03-23T03:59:04.300Z,62.09
2019-03-23T04:04:08.905Z,61.97
2019-03-23T04:09:13.479Z,61.60
2019-03-23T04:14:18.082Z,62.34
2019-03-23T04:19:22.679Z,61.97
2019-03-23T04:24:27.220Z,62.21
2019-03-23T04:29:31.809Z,61.91
2019-03-23T04:34:36.534Z,62.40
2019-03-23T04:39:41.080Z,62.40
2019-03-23T04:44:45.707Z,61.76
2019-03-23T04:49:50.292Z,61.76
2019-03-23T04:54:54.903Z,62.06
2019-03-23T04:59:59.543Z,62.50
2019-03-23T05:05:04.719Z,61.96
2019-03-23T05:10:09.519Z,62.05
2019-03-23T05:15:14.343Z,62.34
2019-03-23T05:20:36.987Z,62.59
2019-03-23T05:30:44.665Z,62.50
2019-03-23T05:35:49.278Z,62.50
2019-03-23T05:40:53.931Z,62.60
2019-03-23T05:56:05.360Z,62.80
2019-03-23T06:01:10.031Z,62.75
2019-03-23T06:11:17.750Z,61.58
2019-03-23T06:16:22.353Z,62.04
2019-03-23T06:21:27.035Z,62.18
2019-03-23T06:26:31.605Z,62.23
2019-03-23T06:31:36.204Z,61.98
2019-03-23T06:36:40.879Z,61.98
2019-03-23T06:41:45.566Z,62.21
2019-03-23T06:46:50.240Z,61.92
2019-03-23T06:51:54.828Z,62.06
2019-03-23T06:56:59.480Z,61.97
2019-03-23T07:02:04.196Z,62.24
2019-03-23T07:07:08.786Z,63.01
2019-03-23T07:12:13.359Z,62.65
2019-03-23T07:17:17.938Z,63.43
2019-03-23T07:22:22.550Z,62.68
2019-03-23T07:27:27.123Z,63.54
2019-03-23T07:32:31.828Z,63.28
2019-03-23T07:37:36.412Z,63.13
2019-03-23T07:42:41.112Z,63.20
2019-03-23T07:47:45.801Z,62.91
2019-03-23T07:52:50.393Z,63.73
2019-03-23T07:57:55.002Z,63.94
2019-03-23T08:02:59.607Z,63.94
2019-03-23T08:08:04.212Z,54.71
2019-03-23T08:13:08.913Z,54.88
2019-03-23T08:18:13.501Z,55.17
2019-03-23T08:23:18.213Z,55.95
2019-03-23T08:28:22.915Z,56.71
2019-03-23T08:33:27.508Z,57.08
2019-03-23T08:38:32.232Z,57.50
2019-03-23T08:43:36.964Z,58.19
2019-03-23T08:48:41.707Z,58.42
2019-03-23T08:53:46.368Z,58.04
2019-03-23T08:58:48.936Z,58.86
2019-03-23T09:03:53.585Z,59.51
2019-03-23T09:08:58.194Z,58.91
2019-03-23T09:14:02.776Z,59.25
2019-03-23T09:19:07.535Z,59.12
2019-03-23T09:24:12.209Z,59.12
2019-03-23T09:29:19.399Z,59.14
2019-03-23T09:34:24.103Z,59.30
2019-03-23T09:39:28.763Z,59.13
2019-03-23T09:44:33.380Z,59.32
2019-03-23T09:49:38.395Z,60.11
2019-03-23T09:54:43.083Z,60.11
2019-03-23T09:59:47.708Z,59.61
2019-03-23T10:04:52.298Z,57.72
2019-03-23T10:15:20.771Z,58.36
2019-03-23T10:20:25.588Z,57.01
2019-03-23T10:25:30.272Z,56.97
2019-03-23T10:30:34.864Z,56.97
2019-03-23T10:35:39.470Z,57.36
2019-03-23T10:40:44.131Z,57.07
2019-03-23T10:45:48.721Z,57.07
2019-03-23T10:50:53.393Z,56.98
2019-03-23T10:55:58.153Z,56.50
2019-03-23T11:06:23.241Z,56.38
2019-03-23T11:11:27.961Z,57.28
2019-03-23T11:16:32.603Z,57.48
2019-03-23T11:21:37.252Z,57.38
2019-03-23T11:26:42.021Z,57.84
2019-03-23T11:31:46.773Z,58.94
2019-03-23T11:36:51.389Z,58.94
2019-03-23T11:41:56.160Z,60.39
2019-03-23T11:47:00.810Z,60.39
2019-03-23T11:52:05.696Z,61.13
2019-03-23T11:57:10.572Z,60.68
2019-03-23T12:02:17.745Z,60.86
2019-03-23T12:07:22.882Z,60.29
2019-03-23T12:12:27.500Z,60.26
2019-03-23T12:17:32.181Z,60.26
2019-03-23T12:22:36.882Z,60.26
2019-03-23T12:27:41.614Z,60.31
2019-03-23T12:37:59.762Z,59.75
2019-03-23T12:43:04.441Z,59.75
2019-03-23T12:48:09.083Z,52.41
2019-03-23T13:26:19.997Z,53.52
2019-03-23T13:31:24.610Z,54.03
2019-03-23T13:36:29.264Z,54.31
2019-03-23T13:41:33.889Z,54.31
2019-03-23T13:46:38.453Z,54.54
2019-03-23T13:51:43.021Z,54.54
2019-03-23T13:56:47.635Z,55.21
2019-03-23T14:01:52.207Z,55.21
2019-03-23T14:06:56.755Z,55.44
2019-03-23T14:12:01.327Z,55.49
2019-03-23T14:17:06.027Z,55.36
2019-03-23T14:22:10.571Z,55.96
2019-03-23T14:27:15.150Z,56.36
2019-03-23T14:32:19.756Z,56.15
2019-03-23T14:37:24.372Z,56.20
2019-03-23T15:04:55.051Z,57.21
2019-03-23T15:09:59.661Z,57.21
2019-03-23T15:15:04.441Z,57.85
2019-03-23T15:20:09.298Z,57.48
2019-03-23T15:25:14.033Z,57.66
2019-03-23T15:30:18.618Z,57.98
2019-03-23T15:35:23.206Z,57.79
2019-03-23T15:40:27.805Z,58.28
2019-03-23T15:45:32.489Z,57.62
2019-03-23T15:50:37.031Z,58.21
2019-03-23T15:55:41.666Z,57.75
2019-03-23T16:00:46.374Z,57.96
2019-03-23T16:05:51.086Z,57.96
2019-03-23T16:10:55.660Z,58.17
2019-03-23T16:16:00.323Z,58.17
2019-03-23T16:21:05.068Z,57.71
2019-03-23T16:26:09.875Z,57.73
2019-03-23T16:31:14.444Z,57.53
2019-03-23T16:36:19.060Z,57.60
2019-03-23T16:41:23.622Z,57.80
2019-03-23T16:46:28.168Z,58.68
2019-03-23T16:51:32.789Z,58.36
2019-03-23T16:56:37.368Z,58.36
2019-03-23T17:01:41.908Z,58.73
2019-03-23T17:06:46.867Z,58.32
2019-03-23T17:11:52.774Z,57.34
2019-03-23T17:16:57.532Z,56.88
2019-03-23T17:22:02.104Z,55.91
2019-03-23T17:27:06.915Z,55.91
2019-03-23T17:32:11.574Z,56.30
2019-03-23T17:37:16.234Z,56.30
2019-03-23T17:42:21.095Z,57.79
2019-03-23T17:47:25.765Z,56.75
2019-03-23T17:52:30.508Z,58.81
2019-03-23T17:57:35.185Z,59.46
2019-03-23T18:02:39.829Z,59.80
2019-03-23T18:07:44.458Z,59.88
2019-03-23T18:12:49.117Z,60.57
2019-03-23T18:17:53.662Z,60.57
2019-03-23T18:22:58.216Z,60.93
2019-03-23T18:28:02.784Z,61.18
2019-03-23T18:33:07.648Z,61.86
2019-03-23T18:38:12.434Z,61.98
2019-03-23T18:43:27.060Z,61.98
2019-03-23T18:48:23.452Z,61.41
2019-03-23T18:53:28.050Z,61.38
2019-03-23T18:58:32.645Z,60.79
2019-03-23T19:03:37.237Z,60.79
2019-03-23T19:08:41.824Z,60.97
2019-03-23T19:13:46.545Z,60.97
2019-03-23T19:18:51.128Z,60.64
2019-03-23T19:23:55.694Z,60.56
2019-03-23T19:29:00.266Z,60.41
2019-03-23T19:34:04.992Z,60.75
2019-03-23T19:39:10.306Z,60.30
2019-03-23T19:44:14.905Z,60.69
2019-03-23T19:49:20.674Z,60.70
2019-03-23T19:54:25.232Z,61.01
2019-03-23T19:59:29.873Z,61.01
2019-03-23T20:04:34.653Z,60.98
2019-03-23T20:09:39.319Z,60.69
2019-03-23T20:14:43.915Z,61.17
2019-03-23T20:19:48.490Z,61.17
2019-03-23T20:24:53.071Z,60.66
2019-03-23T20:29:57.699Z,60.87
2019-03-23T20:35:02.309Z,60.83
2019-03-23T20:40:09.093Z,59.87
2019-03-23T20:45:15.380Z,60.36
2019-03-23T20:50:20.138Z,60.46
2019-03-23T20:55:27.118Z,60.19
2019-03-23T21:00:31.718Z,61.32
2019-03-23T21:05:36.415Z,61.37
2019-03-23T21:10:41.130Z,61.13
2019-03-23T21:15:46.403Z,61.34
2019-03-23T21:20:51.114Z,61.60
2019-03-23T21:25:55.916Z,61.62
2019-03-23T21:31:00.626Z,61.41
2019-03-23T21:36:05.478Z,61.67
2019-03-23T21:41:10.140Z,60.52
2019-03-23T21:46:14.942Z,60.89
2019-03-23T21:51:19.785Z,61.31
2019-03-23T21:56:24.508Z,61.19
2019-03-23T22:01:29.207Z,61.43
2019-03-23T22:06:33.934Z,61.14
2019-03-23T22:11:38.618Z,61.19
2019-03-23T22:16:43.277Z,61.19
2019-03-23T22:21:47.975Z,61.51
2019-03-23T22:26:52.681Z,61.51
2019-03-23T22:31:57.362Z,61.79
2019-03-23T22:37:02.006Z,61.79
2019-03-23T22:42:06.724Z,61.30
2019-03-23T22:47:11.365Z,61.62
2019-03-23T22:52:15.998Z,61.92
2019-03-23T22:57:20.666Z,61.39
2019-03-23T23:02:25.500Z,61.39
2019-03-23T23:07:30.756Z,61.30
2019-03-23T23:12:35.492Z,61.22
2019-03-23T23:17:40.082Z,61.16
2019-03-23T23:22:44.700Z,61.10
2019-03-23T23:27:49.452Z,61.10
2019-03-23T23:32:54.150Z,62.11
2019-03-23T23:37:58.821Z,61.72
2019-03-23T23:43:03.504Z,61.42
2019-03-23T23:48:08.227Z,61.74
2019-03-23T23:53:12.962Z,61.57
2019-03-23T23:58:17.547Z,61.57
